createdAt,value
2023-04-13T00:00:50.061Z,98648.59
2023-04-13T00:03:17.494Z,98648.84
2023-04-13T00:05:53.156Z,98647.78
2023-04-13T00:08:23.184Z,98639.66
2023-04-13T00:10:51.141Z,98624.03
2023-04-13T00:13:20.069Z,98627.59
2023-04-13T00:15:46.971Z,98622.16
2023-04-13T00:18:13.630Z,98609.66
2023-04-13T00:20:41.971Z,98603.72
2023-04-13T00:23:09.046Z,98598.13
2023-04-13T00:25:36.932Z,98592.63
2023-04-13T00:28:06.276Z,98606.81
2023-04-13T00:30:34.722Z,98609.00
2023-04-13T00:33:03.732Z,98618.84
2023-04-13T00:35:30.620Z,98603.09
2023-04-13T00:37:58.905Z,98584.53
2023-04-13T00:40:28.200Z,98579.16
2023-04-13T00:42:54.950Z,98593.44
2023-04-13T00:45:23.013Z,98600.13
2023-04-13T00:47:50.900Z,98609.28
2023-04-13T00:50:20.705Z,98619.34
2023-04-13T00:52:49.907Z,98599.97
2023-04-13T00:55:21.376Z,98586.25
2023-04-13T00:57:52.730Z,98594.50
2023-04-13T01:00:20.671Z,98602.19
2023-04-13T01:02:47.676Z,98583.81
2023-04-13T01:05:16.983Z,98577.56
2023-04-13T01:08:10.490Z,98578.59
2023-04-13T01:10:50.637Z,98548.84
2023-04-13T01:13:30.804Z,98540.09
2023-04-13T01:16:06.925Z,98520.59
2023-04-13T01:18:35.538Z,98510.13
2023-04-13T01:21:04.737Z,98506.25
2023-04-13T01:23:58.677Z,98518.00
2023-04-13T01:26:37.128Z,98509.03
2023-04-13T01:29:04.381Z,98501.84
2023-04-13T01:31:34.558Z,98497.22
2023-04-13T01:34:01.590Z,98501.19
2023-04-13T01:36:29.713Z,98498.78
2023-04-13T01:38:56.959Z,98507.75
2023-04-13T01:41:23.956Z,98509.91
2023-04-13T01:43:50.651Z,98512.03
2023-04-13T01:46:20.696Z,98516.28
2023-04-13T01:48:48.940Z,98511.63
2023-04-13T01:51:18.476Z,98510.75
2023-04-13T01:53:51.152Z,98526.22
2023-04-13T01:56:19.415Z,98537.56
2023-04-13T01:58:54.750Z,98535.91
2023-04-13T02:01:23.101Z,98526.81
2023-04-13T02:03:52.217Z,98544.59
2023-04-13T02:06:19.373Z,98537.38
2023-04-13T02:08:47.371Z,98540.91
2023-04-13T02:11:15.649Z,98561.09
2023-04-13T02:13:42.688Z,98559.63
2023-04-13T02:16:09.373Z,98550.72
2023-04-13T02:18:36.739Z,98561.88
2023-04-13T02:21:12.228Z,98570.22
2023-04-13T02:23:40.862Z,98574.28
2023-04-13T02:26:16.431Z,98576.22
2023-04-13T02:28:43.158Z,98572.97
2023-04-13T02:31:09.863Z,98568.53
2023-04-13T02:33:37.775Z,98568.25
2023-04-13T02:36:04.930Z,98568.03
2023-04-13T02:38:32.138Z,98556.78
2023-04-13T02:41:01.309Z,98549.25
2023-04-13T02:43:28.976Z,98551.56
2023-04-13T02:45:56.405Z,98566.28
2023-04-13T02:48:23.715Z,98572.34
2023-04-13T02:50:51.201Z,98558.25
2023-04-13T02:53:18.131Z,98564.41
2023-04-13T02:55:44.821Z,98566.66
2023-04-13T02:58:12.473Z,98555.50
2023-04-13T03:00:39.248Z,98537.41
2023-04-13T03:03:06.769Z,98559.44
2023-04-13T03:05:34.936Z,98536.13
2023-04-13T03:08:02.469Z,98505.34
2023-04-13T03:10:32.483Z,98507.56
2023-04-13T03:12:59.113Z,98489.78
2023-04-13T03:15:27.317Z,98473.44
2023-04-13T03:17:54.005Z,98448.63
2023-04-13T03:20:24.710Z,98457.63
2023-04-13T03:22:53.595Z,98447.94
2023-04-13T03:25:20.246Z,98429.13
2023-04-13T03:27:46.892Z,98419.94
2023-04-13T03:30:13.707Z,98396.59
2023-04-13T03:32:40.814Z,98394.50
2023-04-13T03:35:07.741Z,98398.56
2023-04-13T03:37:41.441Z,98386.44
2023-04-13T03:40:12.585Z,98380.69
2023-04-13T03:42:40.513Z,98376.75
2023-04-13T03:45:07.606Z,98365.84
2023-04-13T03:47:35.734Z,98358.66
2023-04-13T03:50:05.145Z,98374.41
2023-04-13T03:52:32.080Z,98361.69
2023-04-13T03:54:58.830Z,98348.81
2023-04-13T03:57:26.715Z,98358.84
2023-04-13T03:59:53.371Z,98343.44
2023-04-13T04:02:21.585Z,98345.38
2023-04-13T04:04:50.482Z,98356.03
2023-04-13T04:07:18.442Z,98347.47
2023-04-13T04:09:46.349Z,98337.47
2023-04-13T04:12:14.655Z,98341.66
2023-04-13T04:14:41.463Z,98342.06
2023-04-13T04:17:08.051Z,98330.28
2023-04-13T04:19:34.654Z,98337.84
2023-04-13T04:22:04.831Z,98337.66
2023-04-13T04:24:31.500Z,98326.75
2023-04-13T04:26:59.630Z,98340.97
2023-04-13T04:29:34.242Z,98333.97
2023-04-13T04:32:02.360Z,98328.41
2023-04-13T04:34:29.389Z,98344.84
2023-04-13T04:37:00.237Z,98353.16
2023-04-13T04:39:33.032Z,98367.94
2023-04-13T04:42:07.573Z,98378.19
2023-04-13T04:44:34.492Z,98374.66
2023-04-13T04:47:04.021Z,98394.97
2023-04-13T04:49:30.693Z,98392.06
2023-04-13T04:51:59.413Z,98394.00
2023-04-13T04:54:26.099Z,98401.34
2023-04-13T04:56:54.038Z,98398.66
2023-04-13T04:59:20.830Z,98411.72
2023-04-13T05:01:49.706Z,98426.75
2023-04-13T05:04:18.757Z,98431.28
2023-04-13T05:06:45.432Z,98439.78
2023-04-13T05:09:13.321Z,98452.63
2023-04-13T05:11:39.925Z,98450.84
2023-04-13T05:14:08.010Z,98453.69
2023-04-13T05:16:36.053Z,98468.81
2023-04-13T05:19:04.649Z,98473.03
2023-04-13T05:21:31.235Z,98457.31
2023-04-13T05:23:57.876Z,98458.03
2023-04-13T05:26:25.580Z,98449.78
2023-04-13T05:28:52.378Z,98452.59
2023-04-13T05:31:19.011Z,98450.41
2023-04-13T05:33:46.522Z,98446.22
2023-04-13T05:36:14.501Z,98450.50
2023-04-13T05:38:43.092Z,98442.94
2023-04-13T05:41:10.442Z,98432.53
2023-04-13T05:43:38.579Z,98431.13
2023-04-13T05:46:08.628Z,98431.72
2023-04-13T05:48:35.430Z,98431.63
2023-04-13T05:51:03.144Z,98417.25
2023-04-13T05:53:29.789Z,98405.34
2023-04-13T05:55:56.460Z,98409.06
2023-04-13T05:58:23.103Z,98403.03
2023-04-13T06:00:49.732Z,98398.72
2023-04-13T06:03:17.127Z,98403.59
2023-04-13T06:05:45.963Z,98417.22
2023-04-13T06:08:14.909Z,98419.41
2023-04-13T06:10:43.302Z,98420.78
2023-04-13T06:13:11.582Z,98422.25
2023-04-13T06:15:40.257Z,98419.34
2023-04-13T06:18:08.312Z,98425.41
2023-04-13T06:20:34.920Z,98445.53
2023-04-13T06:23:01.616Z,98457.38
2023-04-13T06:25:28.264Z,98489.13
2023-04-13T06:27:54.975Z,98500.91
2023-04-13T06:30:22.135Z,98501.34
2023-04-13T06:32:48.863Z,98501.78
2023-04-13T06:35:17.499Z,98504.22
2023-04-13T06:37:44.239Z,98494.69
2023-04-13T06:40:15.825Z,98485.22
2023-04-13T06:42:43.115Z,98478.59
2023-04-13T06:45:11.237Z,98489.31
2023-04-13T06:47:44.314Z,98476.72
2023-04-13T06:50:18.509Z,98458.97
2023-04-13T06:52:48.515Z,98470.31
2023-04-13T06:55:15.914Z,98472.34
2023-04-13T06:57:44.045Z,98472.72
2023-04-13T07:00:28.985Z,98488.63
2023-04-13T07:02:58.557Z,98491.31
2023-04-13T07:05:26.044Z,98494.88
2023-04-13T07:07:53.188Z,98512.94
2023-04-13T07:10:19.886Z,98509.63
2023-04-13T07:12:46.551Z,98519.69
2023-04-13T07:15:13.153Z,98532.53
2023-04-13T07:17:40.963Z,98529.25
2023-04-13T07:20:08.442Z,98539.28
2023-04-13T07:22:36.953Z,98548.50
2023-04-13T07:25:04.120Z,98546.94
2023-04-13T07:27:30.796Z,98558.38
2023-04-13T07:29:57.415Z,98553.63
2023-04-13T07:32:30.284Z,98562.25
2023-04-13T07:35:02.993Z,98572.84
2023-04-13T07:37:29.848Z,98580.53
2023-04-13T07:39:58.269Z,98581.66
2023-04-13T07:42:26.269Z,98596.78
2023-04-13T07:44:56.746Z,98600.16
2023-04-13T07:47:23.429Z,98618.09
2023-04-13T07:49:50.090Z,98611.13
2023-04-13T07:52:17.473Z,98621.00
2023-04-13T07:54:44.280Z,98630.22
2023-04-13T07:57:12.340Z,98626.94
2023-04-13T07:59:38.972Z,98657.13
2023-04-13T08:02:07.906Z,98660.31
2023-04-13T08:04:35.113Z,98657.81
2023-04-13T08:07:05.734Z,98675.22
2023-04-13T08:09:36.159Z,98675.75
2023-04-13T08:12:05.125Z,98692.09
2023-04-13T08:14:33.045Z,98707.69
2023-04-13T08:17:03.845Z,98711.25
2023-04-13T08:19:32.124Z,98710.69
2023-04-13T08:21:59.633Z,98719.75
2023-04-13T08:24:27.661Z,98734.84
2023-04-13T08:26:58.776Z,98733.50
2023-04-13T08:29:25.735Z,98725.66
2023-04-13T08:31:53.017Z,98732.56
2023-04-13T08:34:19.749Z,98725.00
2023-04-13T08:36:46.547Z,98723.59
2023-04-13T08:39:13.560Z,98724.81
2023-04-13T08:41:45.506Z,98729.50
2023-04-13T08:44:13.653Z,98730.31
2023-04-13T08:46:44.072Z,98735.09
2023-04-13T08:49:13.446Z,98741.66
2023-04-13T08:51:43.462Z,98733.75
2023-04-13T08:54:14.048Z,98726.22
2023-04-13T08:56:46.782Z,98749.47
2023-04-13T08:59:15.867Z,98743.44
2023-04-13T09:01:46.647Z,98735.84
2023-04-13T09:04:18.189Z,98744.53
2023-04-13T09:06:47.894Z,98760.34
2023-04-13T09:09:15.120Z,98772.25
2023-04-13T09:11:43.372Z,98761.31
2023-04-13T09:14:10.419Z,98759.94
2023-04-13T09:16:42.033Z,98771.72
2023-04-13T09:19:10.977Z,98758.41
2023-04-13T09:21:39.486Z,98768.75
2023-04-13T09:24:08.396Z,98765.56
2023-04-13T09:26:46.441Z,98772.63
2023-04-13T09:29:18.020Z,98777.06
2023-04-13T09:31:46.609Z,98781.75
2023-04-13T09:34:14.644Z,98779.03
2023-04-13T09:36:53.585Z,98791.78
2023-04-13T09:39:28.965Z,98812.16
2023-04-13T09:41:56.289Z,98814.22
2023-04-13T09:44:34.742Z,98806.47
2023-04-13T09:47:03.223Z,98822.03
2023-04-13T09:49:40.663Z,98828.75
2023-04-13T09:52:19.229Z,98843.72
2023-04-13T09:54:53.831Z,98844.47
2023-04-13T09:57:26.196Z,98865.69
2023-04-13T09:59:53.558Z,98907.34
2023-04-13T10:02:22.183Z,98886.50
2023-04-13T10:04:49.694Z,98864.59
2023-04-13T10:07:18.047Z,98871.59
2023-04-13T10:09:44.683Z,98890.94
2023-04-13T10:12:13.832Z,98889.94
2023-04-13T10:14:45.857Z,98877.63
2023-04-13T10:17:28.411Z,98875.97
2023-04-13T10:20:01.507Z,98895.00
2023-04-13T10:22:31.781Z,98882.25
2023-04-13T10:24:58.482Z,98876.09
2023-04-13T10:27:28.358Z,98893.88
2023-04-13T10:29:55.199Z,98882.75
2023-04-13T10:32:24.147Z,98915.59
2023-04-13T10:34:52.630Z,98903.78
2023-04-13T10:37:23.108Z,98898.56
2023-04-13T10:40:02.236Z,98892.25
2023-04-13T10:45:19.514Z,98875.97
2023-04-13T10:47:46.655Z,98873.75
2023-04-13T10:50:17.978Z,98878.81
2023-04-13T10:53:26.047Z,98885.25
2023-04-13T10:55:53.775Z,98888.88
2023-04-13T10:58:20.419Z,98890.25
2023-04-13T11:00:49.267Z,98898.50
2023-04-13T11:03:17.007Z,98910.13
2023-04-13T11:05:47.322Z,98917.25
2023-04-13T11:08:21.076Z,98930.84
2023-04-13T11:10:55.447Z,98941.38
2023-04-13T11:13:25.481Z,98940.91
2023-04-13T11:16:01.542Z,98952.38
2023-04-13T11:18:28.380Z,98950.34
2023-04-13T11:20:56.682Z,98954.34
2023-04-13T11:23:24.441Z,98954.34
2023-04-13T11:25:56.330Z,98968.69
2023-04-13T11:28:23.641Z,98973.66
2023-04-13T11:30:56.535Z,98973.97
2023-04-13T11:33:26.956Z,98975.72
2023-04-13T11:35:55.565Z,98971.41
2023-04-13T11:38:22.862Z,98970.44
2023-04-13T11:40:53.366Z,98969.31
2023-04-13T11:43:24.735Z,98971.56
2023-04-13T11:45:52.417Z,98993.78
2023-04-13T11:48:20.662Z,98983.06
2023-04-13T11:50:49.447Z,98990.56
2023-04-13T11:53:18.250Z,99001.91
2023-04-13T11:55:53.421Z,99000.91
2023-04-13T11:58:21.389Z,98999.81
2023-04-13T12:00:49.024Z,99004.59
2023-04-13T12:05:49.022Z,99014.81
2023-04-13T12:08:24.552Z,99018.75
2023-04-13T12:14:06.519Z,99051.97
2023-04-13T12:17:03.180Z,99046.16
2023-04-13T12:19:27.594Z,99049.72
2023-04-13T12:21:56.691Z,99059.09
2023-04-13T12:24:42.634Z,99057.19
2023-04-13T12:27:18.509Z,99072.34
2023-04-13T12:29:46.016Z,99061.72
2023-04-13T12:32:14.557Z,99065.66
2023-04-13T12:34:42.431Z,99062.91
2023-04-13T12:37:11.139Z,99067.66
2023-04-13T12:39:38.079Z,99068.41
2023-04-13T12:42:05.290Z,99067.34
2023-04-13T12:44:34.141Z,99067.47
2023-04-13T12:47:01.768Z,99063.53
2023-04-13T12:49:28.608Z,99070.38
2023-04-13T12:51:56.566Z,99071.47
2023-04-13T12:54:23.278Z,99076.66
2023-04-13T12:56:51.021Z,99080.28
2023-04-13T12:59:19.170Z,99072.91
2023-04-13T13:01:45.786Z,99073.66
2023-04-13T13:04:12.493Z,99070.75
2023-04-13T13:06:40.517Z,99077.81
2023-04-13T13:09:07.795Z,99077.53
2023-04-13T13:11:34.416Z,99090.53
2023-04-13T13:14:01.008Z,99092.00
2023-04-13T13:16:29.128Z,99095.97
2023-04-13T13:18:55.966Z,99084.09
2023-04-13T13:21:24.574Z,99096.84
2023-04-13T13:23:51.266Z,99100.72
2023-04-13T13:28:50.667Z,99088.03
2023-04-13T13:31:17.457Z,99096.91
2023-04-13T13:33:44.143Z,99089.44
2023-04-13T13:36:11.378Z,99093.84
2023-04-13T13:38:38.164Z,99094.72
2023-04-13T13:41:04.957Z,99078.13
2023-04-13T13:43:32.684Z,99081.69
2023-04-13T13:45:59.434Z,99075.94
2023-04-13T13:48:26.370Z,99068.38
2023-04-13T13:50:53.012Z,99075.09
2023-04-13T13:53:19.734Z,99072.31
2023-04-13T13:55:47.788Z,99075.72
2023-04-13T13:58:14.440Z,99080.31
2023-04-13T14:00:41.490Z,99073.81
2023-04-13T14:03:08.351Z,99069.41
2023-04-13T14:05:35.859Z,99070.72
2023-04-13T14:08:02.640Z,99091.03
2023-04-13T14:10:29.310Z,99072.63
2023-04-13T14:12:57.701Z,99072.72
2023-04-13T14:15:24.369Z,99071.69
2023-04-13T14:18:02.402Z,99065.38
2023-04-13T14:20:39.054Z,99068.75
2023-04-13T14:23:06.301Z,99064.97
2023-04-13T14:25:32.995Z,99059.88
2023-04-13T14:28:00.922Z,99044.75
2023-04-13T14:30:28.471Z,99051.22
2023-04-13T14:32:56.312Z,99031.59
2023-04-13T14:35:24.573Z,99030.16
2023-04-13T14:37:51.390Z,99042.63
2023-04-13T14:40:23.185Z,99041.47
2023-04-13T14:42:52.985Z,99030.38
2023-04-13T14:45:24.030Z,99034.31
2023-04-13T14:47:50.771Z,99026.16
2023-04-13T14:50:18.940Z,99017.88
2023-04-13T14:52:46.815Z,98999.94
2023-04-13T14:55:15.639Z,98999.19
2023-04-13T14:57:42.362Z,99010.88
2023-04-13T15:00:30.165Z,99005.47
2023-04-13T15:02:57.147Z,98986.59
2023-04-13T15:05:24.796Z,98993.81
2023-04-13T15:07:53.217Z,98994.13
2023-04-13T15:10:21.644Z,98969.47
2023-04-13T15:12:49.532Z,98972.19
2023-04-13T15:15:17.533Z,98974.28
2023-04-13T15:17:44.267Z,98950.47
2023-04-13T15:20:12.107Z,98954.53
2023-04-13T15:22:38.871Z,98955.34
2023-04-13T15:25:05.961Z,98933.41
2023-04-13T15:27:32.724Z,98940.13
2023-04-13T15:30:00.170Z,98928.03
2023-04-13T15:32:27.044Z,98919.94
2023-04-13T15:34:56.331Z,98917.91
2023-04-13T15:37:26.119Z,98910.38
2023-04-13T15:39:54.728Z,98897.78
2023-04-13T15:42:22.397Z,98899.47
2023-04-13T15:44:50.310Z,98894.88
2023-04-13T15:47:16.943Z,98882.41
2023-04-13T15:49:43.609Z,98883.53
2023-04-13T15:52:10.440Z,98872.94
2023-04-13T15:54:37.185Z,98871.56
2023-04-13T15:57:03.898Z,98865.53
2023-04-13T15:59:32.748Z,98842.38
2023-04-13T16:01:59.478Z,98834.25
2023-04-13T16:04:26.719Z,98838.22
2023-04-13T16:07:09.437Z,98819.22
2023-04-13T16:09:40.060Z,98815.81
2023-04-13T16:12:10.856Z,98803.50
2023-04-13T16:14:46.589Z,98803.06
2023-04-13T16:17:15.082Z,98799.56
2023-04-13T16:19:46.666Z,98805.19
2023-04-13T16:22:13.429Z,98769.88
2023-04-13T16:24:41.138Z,98771.84
2023-04-13T16:27:08.683Z,98771.28
2023-04-13T16:29:36.965Z,98763.09
2023-04-13T16:32:03.562Z,98787.25
2023-04-13T16:34:30.287Z,98779.63
2023-04-13T16:36:57.725Z,98763.59
2023-04-13T16:39:24.550Z,98757.63
2023-04-13T16:41:51.391Z,98733.47
2023-04-13T16:44:18.067Z,98719.56
2023-04-13T16:46:46.006Z,98726.34
2023-04-13T16:49:12.642Z,98701.75
2023-04-13T16:51:39.255Z,98675.66
2023-04-13T16:54:12.885Z,98663.00
2023-04-13T16:56:40.861Z,98651.09
2023-04-13T16:59:07.459Z,98641.16
2023-04-13T17:01:36.105Z,98643.22
2023-04-13T17:04:04.996Z,98637.13
2023-04-13T17:06:32.259Z,98645.94
2023-04-13T17:08:59.692Z,98662.88
2023-04-13T17:11:26.438Z,98646.69
2023-04-13T17:13:53.093Z,98636.16
2023-04-13T17:16:19.897Z,98646.69
2023-04-13T17:18:46.549Z,98656.50
2023-04-13T17:21:15.028Z,98644.94
2023-04-13T17:23:41.959Z,98660.28
2023-04-13T17:26:08.624Z,98650.50
2023-04-13T17:28:35.280Z,98664.69
2023-04-13T17:31:01.937Z,98684.16
2023-04-13T17:33:30.076Z,98671.41
2023-04-13T17:35:56.730Z,98682.22
2023-04-13T17:38:23.428Z,98686.84
2023-04-13T17:40:51.041Z,98686.78
2023-04-13T17:43:18.000Z,98698.06
2023-04-13T17:45:45.935Z,98699.38
2023-04-13T17:48:12.585Z,98720.69
2023-04-13T17:50:39.228Z,98729.06
2023-04-13T17:53:06.067Z,98737.06
2023-04-13T17:55:36.384Z,98749.28
2023-04-13T17:58:03.029Z,98755.53
2023-04-13T18:00:29.702Z,98762.91
2023-04-13T18:02:58.259Z,98767.78
2023-04-13T18:05:26.638Z,98781.16
2023-04-13T18:07:53.733Z,98793.63
2023-04-13T18:10:20.438Z,98783.06
2023-04-13T18:12:47.088Z,98801.59
2023-04-13T18:15:13.690Z,98808.16
2023-04-13T18:17:42.918Z,98813.84
2023-04-13T18:20:10.502Z,98814.56
2023-04-13T18:22:38.762Z,98811.38
2023-04-13T18:25:05.559Z,98806.78
2023-04-13T18:27:32.283Z,98824.31
2023-04-13T18:30:00.050Z,98816.16
2023-04-13T18:32:26.669Z,98819.22
2023-04-13T18:34:53.436Z,98821.69
2023-04-13T18:37:20.437Z,98823.56
2023-04-13T18:39:47.089Z,98820.97
2023-04-13T18:42:13.740Z,98831.41
2023-04-13T18:44:41.811Z,98832.44
2023-04-13T18:47:08.413Z,98825.34
2023-04-13T18:49:35.043Z,98829.59
2023-04-13T18:52:01.683Z,98822.19
2023-04-13T18:54:29.410Z,98823.94
2023-04-13T18:56:56.097Z,98840.06
2023-04-13T18:59:22.849Z,98832.97
2023-04-13T19:01:49.528Z,98838.88
2023-04-13T19:04:16.645Z,98841.75
2023-04-13T19:06:44.406Z,98838.91
2023-04-13T19:09:11.057Z,98847.00
2023-04-13T19:11:55.349Z,98846.91
2023-04-13T19:14:21.995Z,98844.25
2023-04-13T19:16:52.479Z,98846.53
2023-04-13T19:19:21.514Z,98849.41
2023-04-13T19:21:49.481Z,98842.19
2023-04-13T19:24:16.180Z,98843.13
2023-04-13T19:26:43.214Z,98843.00
2023-04-13T19:29:13.506Z,98830.97
2023-04-13T19:31:44.429Z,98832.13
2023-04-13T19:34:13.581Z,98826.38
2023-04-13T19:36:41.704Z,98815.13
2023-04-13T19:39:11.284Z,98821.94
2023-04-13T19:41:40.833Z,98819.88
2023-04-13T19:44:10.193Z,98824.00
2023-04-13T19:46:37.253Z,98830.97
2023-04-13T19:49:03.986Z,98849.66
2023-04-13T19:51:32.877Z,98840.81
2023-04-13T19:54:01.975Z,98849.06
2023-04-13T19:56:34.585Z,98850.16
2023-04-13T19:59:02.560Z,98858.56
2023-04-13T20:01:33.162Z,98878.97
2023-04-13T20:04:01.476Z,98877.94
2023-04-13T20:06:28.885Z,98865.38
2023-04-13T20:09:06.616Z,98882.75
2023-04-13T20:11:34.831Z,98882.22
2023-04-13T20:14:02.273Z,98889.84
2023-04-13T20:16:30.409Z,98911.81
2023-04-13T20:18:58.487Z,98913.44
2023-04-13T20:21:25.589Z,98911.59
2023-04-13T20:23:52.270Z,98925.81
2023-04-13T20:26:18.877Z,98925.00
2023-04-13T20:28:45.797Z,98915.44
2023-04-13T20:31:12.866Z,98937.38
2023-04-13T20:33:40.841Z,98940.34
2023-04-13T20:36:07.486Z,98942.88
2023-04-13T20:38:36.484Z,98954.88
2023-04-13T20:41:04.472Z,98955.50
2023-04-13T20:43:31.084Z,98951.00
2023-04-13T20:45:59.601Z,98967.81
2023-04-13T20:51:02.930Z,98983.31
2023-04-13T20:53:29.922Z,99005.50
2023-04-13T20:55:57.662Z,99001.72
2023-04-13T20:58:24.684Z,99013.69
2023-04-13T21:00:51.314Z,99034.00
2023-04-13T21:03:18.017Z,99029.09
2023-04-13T21:05:45.519Z,99048.38
2023-04-13T21:08:14.562Z,99042.06
2023-04-13T21:10:42.478Z,99047.97
2023-04-13T21:13:11.830Z,99048.38
2023-04-13T21:15:38.588Z,99058.19
2023-04-13T21:18:05.425Z,99064.13
2023-04-13T21:20:32.103Z,99070.72
2023-04-13T21:22:58.821Z,99083.50
2023-04-13T21:25:26.012Z,99084.81
2023-04-13T21:27:53.506Z,99099.00
2023-04-13T21:30:21.570Z,99110.94
2023-04-13T21:32:49.122Z,99117.41
2023-04-13T21:35:18.572Z,99107.28
2023-04-13T21:37:45.210Z,99124.94
2023-04-13T21:40:11.975Z,99128.22
2023-04-13T21:42:40.794Z,99132.09
2023-04-13T21:45:08.069Z,99136.28
2023-04-13T21:47:34.738Z,99143.25
2023-04-13T21:50:02.702Z,99136.16
2023-04-13T21:52:29.302Z,99154.56
2023-04-13T21:54:56.062Z,99166.94
2023-04-13T21:57:22.677Z,99171.16
2023-04-13T21:59:49.360Z,99177.16
2023-04-13T22:02:16.261Z,99177.47
2023-04-13T22:04:43.000Z,99181.38
2023-04-13T22:07:10.006Z,99196.53
2023-04-13T22:09:36.692Z,99192.81
2023-04-13T22:12:04.753Z,99194.84
2023-04-13T22:14:31.397Z,99189.03
2023-04-13T22:16:59.492Z,99201.72
2023-04-13T22:19:27.711Z,99195.97
2023-04-13T22:21:54.354Z,99206.25
2023-04-13T22:24:21.376Z,99217.06
2023-04-13T22:26:48.044Z,99203.78
2023-04-13T22:29:14.658Z,99224.53
2023-04-13T22:31:42.844Z,99223.78
2023-04-13T22:34:09.456Z,99237.91
2023-04-13T22:36:36.096Z,99244.44
2023-04-13T22:39:02.881Z,99239.94
2023-04-13T22:41:29.717Z,99247.66
2023-04-13T22:43:58.069Z,99249.28
2023-04-13T22:46:25.989Z,99262.84
2023-04-13T22:48:54.380Z,99262.22
2023-04-13T22:51:20.979Z,99264.63
2023-04-13T22:53:53.001Z,99264.44
2023-04-13T22:56:19.650Z,99267.59
2023-04-13T22:58:47.359Z,99273.25
2023-04-13T23:01:13.961Z,99273.03
2023-04-13T23:03:40.798Z,99274.91
2023-04-13T23:06:08.304Z,99273.53
2023-04-13T23:08:34.960Z,99278.97
2023-04-13T23:11:08.954Z,99281.94
2023-04-13T23:13:36.678Z,99277.28
2023-04-13T23:16:05.175Z,99277.38
2023-04-13T23:18:31.849Z,99276.03
2023-04-13T23:20:58.466Z,99275.13
2023-04-13T23:23:26.277Z,99294.06
2023-04-13T23:25:52.877Z,99291.34
2023-04-13T23:28:20.633Z,99281.59
2023-04-13T23:30:47.241Z,99302.66
2023-04-13T23:33:13.901Z,99299.97
2023-04-13T23:35:40.618Z,99290.22
2023-04-13T23:38:07.296Z,99300.50
2023-04-13T23:40:33.917Z,99305.66
2023-04-13T23:43:01.693Z,99305.59
2023-04-13T23:45:28.537Z,99310.72
2023-04-13T23:47:55.615Z,99300.84
2023-04-13T23:50:23.484Z,99292.97
2023-04-13T23:52:50.109Z,99270.44
2023-04-13T23:55:16.737Z,99260.78
2023-04-13T23:57:43.401Z,99262.59
